Time;durP1;ratioP1;P1;durP2;ratioP2;P2;SDS_P1;SDS_P2;PMS_P1;PMS_P2;Temp;Humidity;BMP_temperature;BMP_pressure;BME280_temperature;BME280_humidity;BME280_pressure;Samples;Min_cycle;Max_cycle;Signal;HPM_P1;HPM_P2
2022/04/02 00:02:24;;;;;;;5.30;1.50;;;;;;;;;;5050111;28;20045;-64
2022/04/02 00:04:50;;;;;;;4.72;1.33;;;;;;;;;;5049983;28;20415;-64
2022/04/02 00:07:16;;;;;;;11.05;1.58;;;;;;;;;;5049039;28;20764;-64
2022/04/02 00:09:42;;;;;;;6.82;1.30;;;;;;;;;;5048949;28;20125;-64
2022/04/02 00:12:08;;;;;;;3.53;1.27;;;;;;;;;;5049212;28;20140;-63
2022/04/02 00:14:34;;;;;;;5.72;1.90;;;;;;;;;;5050574;28;20041;-64
2022/04/02 00:17:00;;;;;;;4.60;1.40;;;;;;;;;;5050598;28;20115;-64
2022/04/02 00:19:26;;;;;;;5.43;2.00;;;;;;;;;;5050463;28;20088;-64
2022/04/02 00:21:52;;;;;;;3.78;1.30;;;;;;;;;;5049595;28;20519;-64
2022/04/02 00:24:18;;;;;;;3.13;1.52;;;;;;;;;;5049939;28;20060;-64
2022/04/02 00:26:44;;;;;;;2.92;1.20;;;;;;;;;;5050414;28;20059;-64
2022/04/02 00:29:11;;;;;;;6.88;1.35;;;;;;;;;;5049996;28;20240;-65
2022/04/02 00:31:37;;;;;;;6.78;1.05;;;;;;;;;;5049847;28;20053;-64
2022/04/02 00:34:03;;;;;;;5.80;1.20;;;;;;;;;;5052823;28;20049;-64
2022/04/02 00:36:34;;;;;;;3.20;1.08;;;;;;;;;;5069421;28;20052;-64
2022/04/02 00:39:00;;;;;;;3.72;1.30;;;;;;;;;;5070037;28;20048;-64
2022/04/02 00:41:26;;;;;;;2.45;1.10;;;;;;;;;;5069487;28;20049;-64
2022/04/02 00:43:56;;;;;;;3.42;1.20;;;;;;;;;;5069319;28;20097;-65
2022/04/02 00:46:22;;;;;;;3.55;1.13;;;;;;;;;;5069654;28;20059;-65
2022/04/02 00:48:49;;;;;;;3.83;1.10;;;;;;;;;;5069727;28;20048;-64
2022/04/02 00:51:16;;;;;;;20.00;2.28;;;;;;;;;;5069904;28;20097;-64
2022/04/02 00:53:46;;;;;;;3.65;1.20;;;;;;;;;;5069142;28;20141;-64
2022/04/02 00:56:14;;;;;;;3.42;1.30;;;;;;;;;;5068535;28;20119;-64
2022/04/02 00:58:40;;;;;;;2.75;1.13;;;;;;;;;;5068785;28;20120;-64
2022/04/02 01:01:06;;;;;;;2.10;1.00;;;;;;;;;;5069028;28;20048;-65
2022/04/02 01:03:32;;;;;;;2.72;1.08;;;;;;;;;;5051644;28;20041;-65
2022/04/02 01:05:58;;;;;;;3.78;1.33;;;;;;;;;;5069733;28;20044;-65
2022/04/02 01:08:25;;;;;;;4.88;1.23;;;;;;;;;;5069253;28;20048;-64
2022/04/02 01:10:51;;;;;;;2.70;1.55;;;;;;;;;;5068585;28;20048;-64
2022/04/02 01:13:17;;;;;;;3.40;1.10;;;;;;;;;;5051406;28;20040;-65
2022/04/02 01:15:43;;;;;;;13.02;1.30;;;;;;;;;;5068878;28;20056;-64
2022/04/02 01:18:09;;;;;;;4.47;1.05;;;;;;;;;;5069327;28;20505;-64
2022/04/02 01:20:35;;;;;;;2.95;1.10;;;;;;;;;;5067743;28;20048;-64
2022/04/02 01:23:02;;;;;;;2.28;1.00;;;;;;;;;;5068883;28;20072;-64
2022/04/02 01:25:31;;;;;;;3.20;1.15;;;;;;;;;;5068370;28;20051;-64
2022/04/02 01:27:59;;;;;;;4.10;0.90;;;;;;;;;;5069227;28;20390;-65
2022/04/02 01:30:25;;;;;;;1.95;0.90;;;;;;;;;;5068397;28;20405;-65
2022/04/02 01:32:52;;;;;;;3.50;1.20;;;;;;;;;;5068357;28;20147;-65
2022/04/02 01:35:21;;;;;;;4.90;1.00;;;;;;;;;;5054953;28;20372;-64
2022/04/02 01:37:47;;;;;;;3.50;1.10;;;;;;;;;;5049261;28;20055;-64
2022/04/02 01:40:13;;;;;;;4.28;1.33;;;;;;;;;;5048017;28;20048;-66
2022/04/02 01:42:39;;;;;;;4.00;0.82;;;;;;;;;;5048743;28;20148;-64
2022/04/02 01:45:05;;;;;;;2.60;0.98;;;;;;;;;;5048631;28;20530;-64
2022/04/02 01:47:31;;;;;;;2.85;0.80;;;;;;;;;;5047942;28;20079;-64
2022/04/02 01:49:57;;;;;;;1.73;0.80;;;;;;;;;;5048303;28;20045;-65
2022/04/02 01:52:24;;;;;;;3.13;0.80;;;;;;;;;;5048702;28;20140;-65
2022/04/02 01:54:50;;;;;;;2.03;1.10;;;;;;;;;;5048431;28;20148;-65
2022/04/02 01:57:16;;;;;;;1.50;0.80;;;;;;;;;;5048506;28;20289;-65
2022/04/02 01:59:44;;;;;;;2.72;1.08;;;;;;;;;;5048057;28;20144;-65
2022/04/02 02:02:11;;;;;;;1.77;1.00;;;;;;;;;;5048453;28;20045;-65
2022/04/02 02:04:37;;;;;;;1.85;0.90;;;;;;;;;;5048124;28;20155;-65
2022/04/02 02:07:04;;;;;;;3.15;0.73;;;;;;;;;;5046712;28;20037;-65
2022/04/02 02:09:30;;;;;;;1.77;0.98;;;;;;;;;;5047543;28;20048;-65
2022/04/02 02:11:56;;;;;;;2.53;1.20;;;;;;;;;;5048426;28;20048;-65
2022/04/02 02:14:23;;;;;;;3.03;1.08;;;;;;;;;;5047891;28;20091;-65
2022/04/02 02:16:49;;;;;;;2.67;1.00;;;;;;;;;;5048242;28;20110;-65
2022/04/02 02:19:16;;;;;;;2.88;1.10;;;;;;;;;;5047858;28;20048;-65
2022/04/02 02:21:42;;;;;;;1.58;1.00;;;;;;;;;;5047934;28;20055;-63
2022/04/02 02:24:08;;;;;;;1.95;0.88;;;;;;;;;;5048158;28;20088;-64
2022/04/02 02:26:34;;;;;;;2.97;0.90;;;;;;;;;;5047851;28;20419;-64
2022/04/02 02:29:00;;;;;;;2.67;0.90;;;;;;;;;;5047991;28;20053;-64
2022/04/02 02:31:27;;;;;;;3.47;1.13;;;;;;;;;;5047518;28;20145;-64
2022/04/02 02:36:49;;;;;;;3.25;1.13;;;;;;;;;;5028390;28;20054;-64
2022/04/02 02:39:15;;;;;;;1.80;0.60;;;;;;;;;;5047648;28;20052;-64
2022/04/02 02:41:41;;;;;;;1.95;1.20;;;;;;;;;;5047587;28;20403;-64
2022/04/02 02:44:07;;;;;;;1.63;0.90;;;;;;;;;;5046553;28;20446;-65
2022/04/02 02:46:33;;;;;;;3.30;1.00;;;;;;;;;;5047552;28;20045;-64
2022/04/02 02:48:59;;;;;;;4.47;0.80;;;;;;;;;;5046835;28;20053;-64
2022/04/02 02:51:25;;;;;;;2.60;0.90;;;;;;;;;;5047142;28;20144;-65
2022/04/02 02:53:51;;;;;;;2.92;0.90;;;;;;;;;;5046780;28;20136;-64
2022/04/02 02:56:17;;;;;;;3.78;0.90;;;;;;;;;;5046815;28;20104;-64
2022/04/02 02:58:43;;;;;;;3.58;0.90;;;;;;;;;;5046001;28;20118;-65
2022/04/02 03:01:11;;;;;;;2.42;1.08;;;;;;;;;;5046885;28;20152;-65
2022/04/02 03:03:38;;;;;;;2.38;1.15;;;;;;;;;;5047033;28;20049;-65
2022/04/02 03:06:04;;;;;;;1.77;0.70;;;;;;;;;;5046305;28;20104;-65
2022/04/02 03:08:30;;;;;;;3.88;1.20;;;;;;;;;;5046051;28;20036;-65
2022/04/02 03:10:56;;;;;;;2.03;0.82;;;;;;;;;;5047386;28;20048;-65
2022/04/02 03:13:22;;;;;;;7.55;1.15;;;;;;;;;;5046519;28;20040;-63
2022/04/02 03:15:48;;;;;;;11.05;1.90;;;;;;;;;;5046750;28;20052;-63
2022/04/02 03:18:15;;;;;;;3.97;0.88;;;;;;;;;;5047477;28;20045;-63
2022/04/02 03:20:41;;;;;;;5.13;1.02;;;;;;;;;;5047393;28;20660;-63
2022/04/02 03:23:08;;;;;;;5.38;0.80;;;;;;;;;;5047288;28;20045;-63
2022/04/02 03:25:35;;;;;;;2.38;0.70;;;;;;;;;;5047173;28;20055;-63
2022/04/02 03:28:01;;;;;;;3.60;0.90;;;;;;;;;;5047071;28;20049;-63
2022/04/02 03:30:27;;;;;;;4.72;0.90;;;;;;;;;;5046358;28;20045;-64
2022/04/02 03:32:53;;;;;;;2.20;0.88;;;;;;;;;;5047324;28;20053;-63
2022/04/02 03:35:20;;;;;;;3.55;1.10;;;;;;;;;;5060873;28;20131;-63
2022/04/02 03:37:49;;;;;;;9.98;1.25;;;;;;;;;;5067049;28;20047;-63
2022/04/02 03:40:17;;;;;;;4.32;0.75;;;;;;;;;;5066859;28;20044;-63
2022/04/02 03:42:44;;;;;;;2.53;0.90;;;;;;;;;;5067613;28;20060;-64
2022/04/02 03:45:11;;;;;;;2.55;0.93;;;;;;;;;;5070849;28;20058;-64
2022/04/02 03:47:38;;;;;;;4.40;1.00;;;;;;;;;;5070630;28;20048;-64
2022/04/02 03:50:05;;;;;;;2.67;0.90;;;;;;;;;;5070978;28;20040;-64
2022/04/02 03:52:31;;;;;;;7.68;1.30;;;;;;;;;;5070001;28;20044;-64
2022/04/02 03:54:58;;;;;;;5.47;1.23;;;;;;;;;;5070498;28;20048;-64
2022/04/02 03:57:24;;;;;;;2.10;1.08;;;;;;;;;;5070539;28;20059;-64
2022/04/02 03:59:50;;;;;;;5.00;1.08;;;;;;;;;;5071018;28;20075;-64
2022/04/02 04:02:16;;;;;;;2.17;0.82;;;;;;;;;;5070740;28;20080;-64
2022/04/02 04:04:42;;;;;;;3.10;0.90;;;;;;;;;;5070350;28;20080;-64
2022/04/02 04:07:08;;;;;;;4.82;1.10;;;;;;;;;;5069985;28;20044;-64
2022/04/02 04:09:37;;;;;;;2.20;1.08;;;;;;;;;;5070644;28;20080;-64
2022/04/02 04:12:04;;;;;;;3.78;0.80;;;;;;;;;;5070734;28;20087;-64
2022/04/02 04:14:30;;;;;;;3.00;0.80;;;;;;;;;;5069984;28;20044;-64
2022/04/02 04:16:56;;;;;;;2.00;0.77;;;;;;;;;;5069888;28;20545;-64
2022/04/02 04:19:22;;;;;;;2.28;0.70;;;;;;;;;;5070393;28;20256;-65
2022/04/02 04:21:48;;;;;;;2.40;0.82;;;;;;;;;;5070388;28;20440;-64
2022/04/02 04:24:15;;;;;;;1.83;0.75;;;;;;;;;;5069911;28;20073;-64
2022/04/02 04:26:42;;;;;;;1.75;0.80;;;;;;;;;;5069301;28;20049;-64
2022/04/02 04:29:08;;;;;;;2.08;0.70;;;;;;;;;;5070511;28;20562;-64
2022/04/02 04:31:34;;;;;;;2.80;0.90;;;;;;;;;;5069780;28;20513;-64
2022/04/02 04:34:01;;;;;;;1.85;0.70;;;;;;;;;;5066491;28;20115;-65
2022/04/02 04:36:29;;;;;;;1.75;1.00;;;;;;;;;;5049631;28;20159;-64
2022/04/02 04:38:56;;;;;;;2.50;0.98;;;;;;;;;;5050394;28;20076;-64
2022/04/02 04:41:22;;;;;;;2.03;0.80;;;;;;;;;;5049774;28;20043;-64
2022/04/02 04:43:48;;;;;;;1.85;0.70;;;;;;;;;;5049765;28;20278;-64
2022/04/02 04:46:15;;;;;;;2.22;0.80;;;;;;;;;;5049181;28;20099;-65
2022/04/02 04:48:41;;;;;;;2.53;0.73;;;;;;;;;;5049717;28;20560;-64
2022/04/02 04:51:08;;;;;;;2.15;0.70;;;;;;;;;;5049483;28;20162;-64
2022/04/02 04:53:34;;;;;;;2.03;0.50;;;;;;;;;;5049704;28;20048;-64
2022/04/02 04:56:00;;;;;;;2.33;0.63;;;;;;;;;;5049347;28;20062;-64
2022/04/02 04:58:29;;;;;;;1.80;0.70;;;;;;;;;;5048302;28;20071;-65
2022/04/02 05:00:56;;;;;;;2.15;0.77;;;;;;;;;;5048743;28;20041;-64
2022/04/02 05:03:26;;;;;;;2.17;1.02;;;;;;;;;;5049785;28;20041;-63
2022/04/02 05:05:53;;;;;;;2.40;0.80;;;;;;;;;;5048972;28;20115;-63
2022/04/02 05:08:23;;;;;;;1.33;0.70;;;;;;;;;;5049619;28;20396;-63
2022/04/02 05:10:49;;;;;;;2.63;0.93;;;;;;;;;;5048713;28;20037;-63
2022/04/02 05:13:15;;;;;;;11.75;1.33;;;;;;;;;;5049011;28;20052;-64
2022/04/02 05:15:42;;;;;;;1.98;0.70;;;;;;;;;;5048712;28;20399;-63
2022/04/02 05:18:11;;;;;;;3.45;0.90;;;;;;;;;;5048995;28;20160;-64
2022/04/02 05:20:44;;;;;;;4.20;0.70;;;;;;;;;;5049187;28;20476;-63
2022/04/02 05:23:11;;;;;;;8.55;1.00;;;;;;;;;;5048941;28;20157;-64
2022/04/02 05:25:38;;;;;;;2.38;0.80;;;;;;;;;;5049249;28;20109;-63
2022/04/02 05:28:05;;;;;;;3.15;1.13;;;;;;;;;;5047262;28;20076;-63
2022/04/02 05:30:34;;;;;;;1.48;0.70;;;;;;;;;;5048901;28;20048;-63
2022/04/02 05:33:01;;;;;;;2.75;0.88;;;;;;;;;;5049173;28;20048;-63
2022/04/02 05:35:27;;;;;;;2.88;1.05;;;;;;;;;;5048930;28;20136;-64
2022/04/02 05:37:53;;;;;;;2.63;0.82;;;;;;;;;;5048914;28;20036;-64
2022/04/02 05:40:19;;;;;;;2.10;0.90;;;;;;;;;;5048219;28;20102;-64
2022/04/02 05:42:48;;;;;;;2.80;0.80;;;;;;;;;;5048214;28;20048;-64
2022/04/02 05:45:15;;;;;;;2.72;0.90;;;;;;;;;;5048583;28;20368;-64
2022/04/02 05:47:42;;;;;;;2.53;0.88;;;;;;;;;;5049031;28;20079;-64
2022/04/02 05:50:09;;;;;;;1.92;0.93;;;;;;;;;;5048988;28;20427;-63
2022/04/02 05:52:35;;;;;;;2.22;0.60;;;;;;;;;;5047895;28;20060;-64
2022/04/02 05:55:01;;;;;;;0.80;0.57;;;;;;;;;;5048663;28;20049;-64
2022/04/02 05:57:27;;;;;;;2.15;0.80;;;;;;;;;;5048300;28;20045;-64
2022/04/02 05:59:53;;;;;;;4.00;0.93;;;;;;;;;;5048777;28;20056;-63
2022/04/02 06:02:19;;;;;;;2.85;0.57;;;;;;;;;;5048741;28;20094;-64
2022/04/02 06:04:45;;;;;;;3.25;0.82;;;;;;;;;;5048880;28;20044;-64
2022/04/02 06:07:11;;;;;;;3.47;0.65;;;;;;;;;;5047448;28;20410;-63
2022/04/02 06:09:37;;;;;;;3.33;1.20;;;;;;;;;;5048891;28;20040;-63
2022/04/02 06:12:04;;;;;;;1.25;0.60;;;;;;;;;;5048842;28;20041;-63
2022/04/02 06:14:30;;;;;;;1.05;0.60;;;;;;;;;;5048113;28;20090;-64
2022/04/02 06:16:56;;;;;;;6.63;0.90;;;;;;;;;;5048483;28;20052;-63
2022/04/02 06:19:22;;;;;;;1.52;0.60;;;;;;;;;;5047476;28;20499;-63
2022/04/02 06:21:48;;;;;;;1.92;0.88;;;;;;;;;;5048665;28;20071;-63
2022/04/02 06:24:14;;;;;;;13.02;1.10;;;;;;;;;;5048463;28;20398;-64
2022/04/02 06:26:40;;;;;;;7.05;0.70;;;;;;;;;;5048002;28;20045;-63
2022/04/02 06:29:06;;;;;;;11.43;1.60;;;;;;;;;;5047629;28;20053;-64
2022/04/02 06:31:32;;;;;;;3.88;1.15;;;;;;;;;;5048161;28;20041;-63
2022/04/02 06:33:58;;;;;;;3.28;0.95;;;;;;;;;;5051205;28;20122;-64
2022/04/02 06:36:24;;;;;;;6.65;1.13;;;;;;;;;;5067751;28;20457;-63
2022/04/02 06:38:50;;;;;;;4.90;1.25;;;;;;;;;;5067480;28;20503;-64
2022/04/02 06:41:16;;;;;;;2.83;0.90;;;;;;;;;;5067875;28;20047;-63
2022/04/02 06:43:42;;;;;;;3.15;0.90;;;;;;;;;;5067972;28;20140;-63
2022/04/02 06:46:09;;;;;;;2.58;0.95;;;;;;;;;;5068017;28;20060;-63
2022/04/02 06:48:35;;;;;;;5.78;0.82;;;;;;;;;;5068203;28;20059;-63
2022/04/02 06:51:02;;;;;;;10.00;0.93;;;;;;;;;;5068186;28;20071;-64
2022/04/02 06:53:28;;;;;;;1.77;0.60;;;;;;;;;;5067680;28;20063;-64
2022/04/02 06:55:54;;;;;;;2.75;0.77;;;;;;;;;;5067281;28;20084;-63
2022/04/02 06:58:26;;;;;;;3.95;1.00;;;;;;;;;;5066918;28;20456;-63
2022/04/02 07:00:52;;;;;;;2.42;0.60;;;;;;;;;;5067749;28;20040;-63
2022/04/02 07:03:18;;;;;;;2.85;0.98;;;;;;;;;;5067390;28;20464;-63
2022/04/02 07:05:44;;;;;;;8.48;0.93;;;;;;;;;;5067117;28;20071;-63
2022/04/02 07:08:10;;;;;;;2.78;0.90;;;;;;;;;;5067769;28;20414;-63
2022/04/02 07:10:36;;;;;;;4.38;1.17;;;;;;;;;;5067596;28;20166;-63
2022/04/02 07:13:02;;;;;;;1.67;0.70;;;;;;;;;;5068026;28;20051;-64
2022/04/02 07:15:28;;;;;;;4.10;0.82;;;;;;;;;;5067596;28;20387;-63
2022/04/02 07:17:55;;;;;;;4.20;0.70;;;;;;;;;;5066310;28;20850;-64
2022/04/02 07:20:27;;;;;;;3.38;0.65;;;;;;;;;;5070625;28;20089;-64
2022/04/02 07:22:54;;;;;;;3.70;0.70;;;;;;;;;;5070754;28;20059;-64
2022/04/02 07:25:20;;;;;;;3.25;0.80;;;;;;;;;;5070657;28;20521;-64
2022/04/02 07:27:47;;;;;;;2.53;0.77;;;;;;;;;;5070751;28;20051;-64
2022/04/02 07:30:13;;;;;;;2.28;0.70;;;;;;;;;;5071273;28;20044;-64
2022/04/02 07:32:39;;;;;;;1.45;0.65;;;;;;;;;;5071354;28;20410;-63
2022/04/02 07:35:06;;;;;;;1.85;0.60;;;;;;;;;;5059115;28;20392;-64
2022/04/02 07:37:51;;;;;;;2.55;0.90;;;;;;;;;;5050624;28;20127;-64
2022/04/02 07:40:18;;;;;;;1.52;0.85;;;;;;;;;;5050096;28;20397;-64
2022/04/02 07:43:03;;;;;;;2.55;0.90;;;;;;;;;;5049993;28;20098;-64
2022/04/02 07:45:32;;;;;;;2.63;0.80;;;;;;;;;;5049501;28;20057;-64
2022/04/02 07:47:59;;;;;;;2.08;1.00;;;;;;;;;;5050854;28;20060;-65
2022/04/02 07:50:26;;;;;;;1.75;0.77;;;;;;;;;;5049067;28;20049;-64
2022/04/02 07:52:53;;;;;;;2.63;0.88;;;;;;;;;;5050740;28;20060;-64
2022/04/02 07:55:20;;;;;;;2.50;0.77;;;;;;;;;;5051041;28;20120;-64
2022/04/02 07:57:50;;;;;;;1.60;0.68;;;;;;;;;;5050072;28;20457;-64
2022/04/02 08:00:18;;;;;;;1.50;0.70;;;;;;;;;;5049517;28;20168;-63
2022/04/02 08:02:45;;;;;;;1.98;0.73;;;;;;;;;;5051262;28;20049;-64
2022/04/02 08:05:15;;;;;;;6.40;0.98;;;;;;;;;;5049366;28;20052;-66
2022/04/02 08:07:49;;;;;;;9.15;0.70;;;;;;;;;;5050849;28;20045;-65
2022/04/02 08:10:16;;;;;;;5.32;0.70;;;;;;;;;;5050780;28;20465;-65
2022/04/02 08:12:42;;;;;;;3.25;0.70;;;;;;;;;;5050785;28;20045;-65
2022/04/02 08:15:12;;;;;;;5.55;0.85;;;;;;;;;;5048768;28;20494;-65
2022/04/02 08:17:39;;;;;;;3.58;0.80;;;;;;;;;;5050496;28;20457;-65
2022/04/02 08:20:05;;;;;;;3.22;0.65;;;;;;;;;;5049558;28;20120;-65
2022/04/02 08:22:32;;;;;;;10.40;1.00;;;;;;;;;;5050569;28;20051;-64
2022/04/02 08:24:58;;;;;;;2.63;0.88;;;;;;;;;;5049849;28;20051;-65
2022/04/02 08:27:34;;;;;;;2.65;0.50;;;;;;;;;;5050478;28;20044;-64
2022/04/02 08:30:08;;;;;;;3.13;0.80;;;;;;;;;;5049536;28;20049;-65
2022/04/02 08:32:38;;;;;;;1.10;0.57;;;;;;;;;;5050009;28;20049;-67
2022/04/02 08:35:07;;;;;;;3.78;0.63;;;;;;;;;;5061384;28;20060;-65
2022/04/02 08:37:52;;;;;;;6.32;0.60;;;;;;;;;;5069752;28;20080;-64
2022/04/02 08:40:40;;;;;;;4.45;0.75;;;;;;;;;;5070002;28;20044;-64
2022/04/02 08:43:09;;;;;;;3.92;1.67;;;;;;;;;;5069860;28;20047;-64
2022/04/02 08:45:44;;;;;;;2.08;0.70;;;;;;;;;;5069888;28;20084;-64
2022/04/02 08:48:13;;;;;;;1.10;0.50;;;;;;;;;;5051406;28;20448;-65
2022/04/02 08:50:42;;;;;;;2.92;0.45;;;;;;;;;;5051196;28;20048;-64
2022/04/02 08:53:23;;;;;;;1.73;0.65;;;;;;;;;;5069816;28;20041;-65
2022/04/02 08:55:51;;;;;;;1.52;0.55;;;;;;;;;;5068951;28;20434;-65
2022/04/02 08:58:17;;;;;;;2.97;0.70;;;;;;;;;;5069165;28;20040;-65
2022/04/02 09:00:54;;;;;;;2.65;0.70;;;;;;;;;;5070036;28;20041;-65
2022/04/02 09:03:29;;;;;;;2.70;0.50;;;;;;;;;;5068905;28;20041;-66
2022/04/02 09:06:14;;;;;;;2.28;0.70;;;;;;;;;;5069736;28;20032;-65
2022/04/02 09:09:02;;;;;;;2.80;0.70;;;;;;;;;;5069421;28;20383;-65
2022/04/02 09:11:46;;;;;;;1.13;0.57;;;;;;;;;;5069581;28;20060;-65
2022/04/02 09:14:19;;;;;;;1.60;0.60;;;;;;;;;;5067365;28;20044;-64
2022/04/02 09:16:54;;;;;;;2.20;0.73;;;;;;;;;;5068840;28;20082;-64
2022/04/02 09:19:23;;;;;;;1.23;0.50;;;;;;;;;;5068976;28;20040;-64
2022/04/02 09:21:52;;;;;;;3.03;0.70;;;;;;;;;;5069527;28;20674;-65
2022/04/02 09:24:30;;;;;;;2.00;0.57;;;;;;;;;;5067277;28;20079;-65
2022/04/02 09:27:15;;;;;;;1.90;0.60;;;;;;;;;;5068952;28;20041;-65
2022/04/02 09:30:03;;;;;;;1.63;0.50;;;;;;;;;;5068548;28;20052;-66
2022/04/02 09:32:48;;;;;;;2.40;0.70;;;;;;;;;;5068801;28;20049;-64
2022/04/02 09:35:21;;;;;;;1.98;0.70;;;;;;;;;;5050537;28;20053;-66
2022/04/02 09:38:05;;;;;;;2.40;0.82;;;;;;;;;;5067455;28;20045;-64
2022/04/02 09:40:34;;;;;;;1.35;0.80;;;;;;;;;;5063918;28;20506;-65
2022/04/02 09:43:01;;;;;;;1.67;0.70;;;;;;;;;;5048626;28;20041;-67
2022/04/02 09:45:32;;;;;;;4.03;0.80;;;;;;;;;;5051884;28;20448;-65
2022/04/02 09:48:17;;;;;;;2.65;0.80;;;;;;;;;;5068454;28;20449;-66
2022/04/02 09:50:44;;;;;;;2.65;0.90;;;;;;;;;;5067167;28;20048;-65
2022/04/02 09:53:14;;;;;;;1.92;0.80;;;;;;;;;;5068153;28;20047;-65
2022/04/02 09:56:12;;;;;;;2.40;0.90;;;;;;;;;;5068218;28;20147;-65
2022/04/02 09:58:57;;;;;;;2.17;0.93;;;;;;;;;;5023673;28;20475;-65
2022/04/02 10:01:29;;;;;;;2.10;0.80;;;;;;;;;;5050757;28;20441;-65
2022/04/02 10:04:14;;;;;;;2.45;0.70;;;;;;;;;;5065517;28;20049;-66
2022/04/02 10:06:41;;;;;;;2.58;0.70;;;;;;;;;;5066784;28;20040;-66
2022/04/02 10:09:14;;;;;;;2.83;0.90;;;;;;;;;;5048508;28;20047;-65
2022/04/02 10:11:53;;;;;;;2.60;0.80;;;;;;;;;;5066038;28;20056;-66
2022/04/02 10:14:22;;;;;;;2.80;1.20;;;;;;;;;;5065582;28;20470;-66
2022/04/02 10:16:53;;;;;;;1.77;0.80;;;;;;;;;;5067565;28;20056;-65
2022/04/02 10:19:25;;;;;;;2.70;0.50;;;;;;;;;;5067445;28;20406;-65
2022/04/02 10:21:56;;;;;;;1.23;0.70;;;;;;;;;;5066567;28;20037;-66
2022/04/02 10:24:23;;;;;;;2.05;0.60;;;;;;;;;;5068084;28;20047;-65
2022/04/02 10:26:51;;;;;;;1.10;0.75;;;;;;;;;;5067159;28;20052;-65
2022/04/02 10:29:23;;;;;;;2.58;0.70;;;;;;;;;;5066762;28;20056;-66
2022/04/02 10:31:49;;;;;;;1.45;0.60;;;;;;;;;;5067357;28;20568;-65
2022/04/02 10:34:24;;;;;;;2.78;1.23;;;;;;;;;;5061687;28;20404;-66
2022/04/02 10:36:53;;;;;;;2.10;0.80;;;;;;;;;;5045940;28;20045;-66
2022/04/02 10:39:22;;;;;;;2.22;0.88;;;;;;;;;;5042998;28;20036;-66
2022/04/02 10:41:52;;;;;;;3.47;0.75;;;;;;;;;;5045504;28;20067;-65
2022/04/02 10:44:31;;;;;;;4.60;1.00;;;;;;;;;;5047506;28;20128;-66
2022/04/02 10:46:58;;;;;;;1.77;0.60;;;;;;;;;;5046308;28;20083;-65
2022/04/02 10:49:29;;;;;;;3.70;0.75;;;;;;;;;;5046925;28;20590;-65
2022/04/02 10:51:56;;;;;;;2.97;0.80;;;;;;;;;;5046839;28;20041;-66
2022/04/02 10:54:27;;;;;;;1.00;0.47;;;;;;;;;;5051460;28;20159;-66
2022/04/02 10:56:53;;;;;;;3.13;0.60;;;;;;;;;;5051540;28;20127;-66
2022/04/02 10:59:21;;;;;;;2.38;0.80;;;;;;;;;;5050722;28;20124;-65
2022/04/02 11:01:52;;;;;;;1.45;0.50;;;;;;;;;;5052498;28;20053;-65
2022/04/02 11:04:30;;;;;;;1.88;0.70;;;;;;;;;;5050110;28;20083;-65
2022/04/02 11:06:57;;;;;;;1.98;0.70;;;;;;;;;;5050635;28;20414;-66
2022/04/02 11:09:29;;;;;;;2.17;0.70;;;;;;;;;;5049729;28;20089;-67
2022/04/02 11:11:59;;;;;;;1.92;0.50;;;;;;;;;;5049780;28;20378;-66
2022/04/02 11:14:25;;;;;;;1.42;0.70;;;;;;;;;;5050346;28;20041;-65
2022/04/02 11:16:52;;;;;;;2.40;0.82;;;;;;;;;;5051941;28;20049;-66
2022/04/02 11:22:11;;;;;;;1.42;0.82;;;;;;;;;;5049736;28;20044;-66
2022/04/02 11:24:50;;;;;;;1.98;0.70;;;;;;;;;;5048070;28;20056;-65
2022/04/02 11:27:18;;;;;;;1.42;0.60;;;;;;;;;;5047783;28;20423;-65
2022/04/02 11:29:47;;;;;;;1.83;0.77;;;;;;;;;;5049976;28;20131;-65
2022/04/02 11:32:13;;;;;;;;;;;;;;;;;;5049839;28;20151;-65
2022/04/02 11:34:41;;;;;;;0.98;0.50;;;;;;;;;;5047939;28;19927;-66
2022/04/02 11:37:10;;;;;;;2.03;0.80;;;;;;;;;;5049515;28;20045;-65
2022/04/02 11:39:56;;;;;;;1.33;0.52;;;;;;;;;;5049353;28;20785;-66
2022/04/02 11:42:27;;;;;;;1.17;0.43;;;;;;;;;;5042247;28;20115;-65
2022/04/02 11:44:53;;;;;;;1.10;0.60;;;;;;;;;;5049481;28;20049;-65
2022/04/02 11:47:27;;;;;;;1.88;0.57;;;;;;;;;;5049055;28;20056;-65
2022/04/02 11:49:54;;;;;;;1.70;0.68;;;;;;;;;;5048892;28;20048;-66
2022/04/02 11:52:20;;;;;;;1.30;0.60;;;;;;;;;;5049406;28;20231;-66
2022/04/02 11:54:49;;;;;;;1.20;0.40;;;;;;;;;;5048446;28;20041;-64
2022/04/02 11:57:17;;;;;;;0.82;0.60;;;;;;;;;;5048850;28;20128;-65
2022/04/02 11:59:53;;;;;;;2.42;0.50;;;;;;;;;;5048451;28;21376;-66
2022/04/02 12:02:39;;;;;;;1.60;0.60;;;;;;;;;;5048417;28;20045;-65
2022/04/02 12:05:07;;;;;;;2.78;0.70;;;;;;;;;;5047488;28;20053;-65
2022/04/02 12:07:43;;;;;;;1.67;0.70;;;;;;;;;;5047679;28;20087;-65
2022/04/02 12:10:16;;;;;;;1.27;0.60;;;;;;;;;;5048088;28;20465;-65
2022/04/02 12:12:43;;;;;;;1.05;0.50;;;;;;;;;;5046522;28;20099;-65
2022/04/02 12:15:10;;;;;;;0.95;0.50;;;;;;;;;;5045988;28;20115;-66
2022/04/02 12:17:37;;;;;;;0.55;0.40;;;;;;;;;;5047701;28;20068;-65
2022/04/02 12:20:07;;;;;;;3.78;0.80;;;;;;;;;;5045985;28;20491;-65
2022/04/02 12:22:36;;;;;;;1.63;0.50;;;;;;;;;;5048338;28;20110;-65
2022/04/02 12:25:06;;;;;;;0.90;0.50;;;;;;;;;;5047177;28;20063;-65
2022/04/02 12:27:33;;;;;;;1.42;0.52;;;;;;;;;;5048131;28;20506;-67
2022/04/02 12:30:00;;;;;;;8.88;1.02;;;;;;;;;;5048955;28;20502;-67
2022/04/02 12:32:32;;;;;;;8.70;0.80;;;;;;;;;;5049850;28;20052;-67
2022/04/02 12:35:00;;;;;;;5.00;0.80;;;;;;;;;;5050211;28;20158;-66
2022/04/02 12:37:28;;;;;;;3.45;0.90;;;;;;;;;;5049928;28;20041;-66
2022/04/02 12:39:54;;;;;;;3.70;0.55;;;;;;;;;;5050102;28;20053;-66
2022/04/02 12:42:36;;;;;;;2.05;0.63;;;;;;;;;;5050096;28;20473;-66
2022/04/02 12:45:09;;;;;;;5.15;0.80;;;;;;;;;;5049223;28;20523;-66
2022/04/02 12:47:37;;;;;;;2.30;0.98;;;;;;;;;;5049345;28;20052;-66
2022/04/02 12:50:10;;;;;;;2.45;0.60;;;;;;;;;;5050030;28;20072;-66
2022/04/02 12:52:43;;;;;;;5.03;0.85;;;;;;;;;;5049986;28;20053;-66
2022/04/02 12:55:16;;;;;;;6.20;0.60;;;;;;;;;;5049843;28;20142;-67
2022/04/02 12:57:45;;;;;;;2.45;0.73;;;;;;;;;;5049840;28;20147;-66
2022/04/02 13:00:25;;;;;;;1.70;0.47;;;;;;;;;;5049310;28;20045;-66
2022/04/02 13:02:55;;;;;;;1.48;0.50;;;;;;;;;;5030102;28;20056;-67
2022/04/02 13:05:24;;;;;;;0.98;0.60;;;;;;;;;;5029431;28;20091;-66
2022/04/02 13:08:01;;;;;;;2.70;0.70;;;;;;;;;;5029503;28;20046;-67
2022/04/02 13:10:29;;;;;;;1.95;0.90;;;;;;;;;;5047900;28;20053;-67
2022/04/02 13:12:59;;;;;;;2.78;0.57;;;;;;;;;;5049608;28;20503;-66
2022/04/02 13:15:27;;;;;;;1.65;0.50;;;;;;;;;;5048209;28;20469;-67
2022/04/02 13:20:44;;;;;;;1.80;0.80;;;;;;;;;;5049481;28;20125;-66
2022/04/02 13:23:24;;;;;;;2.47;0.63;;;;;;;;;;5048504;28;20287;-66
2022/04/02 13:25:53;;;;;;;2.50;0.60;;;;;;;;;;5047772;28;20091;-66
2022/04/02 13:28:30;;;;;;;1.45;0.70;;;;;;;;;;5048855;28;20045;-65
2022/04/02 13:31:00;;;;;;;0.93;0.45;;;;;;;;;;5048850;28;20506;-65
2022/04/02 13:33:45;;;;;;;1.42;0.70;;;;;;;;;;5049243;28;20454;-65
2022/04/02 13:36:30;;;;;;;2.47;0.50;;;;;;;;;;5028951;28;20046;-65
2022/04/02 13:39:01;;;;;;;2.42;0.70;;;;;;;;;;5028898;28;20136;-66
2022/04/02 13:41:32;;;;;;;1.25;0.77;;;;;;;;;;5028268;28;20064;-65
2022/04/02 13:43:59;;;;;;;1.92;0.47;;;;;;;;;;5028041;28;20427;-66
2022/04/02 13:46:30;;;;;;;1.00;0.63;;;;;;;;;;5028704;28;20065;-65
2022/04/02 13:48:56;;;;;;;1.77;0.50;;;;;;;;;;5028898;28;20055;-65
2022/04/02 13:51:28;;;;;;;1.50;0.40;;;;;;;;;;5029048;28;20103;-65
2022/04/02 13:54:04;;;;;;;1.23;0.60;;;;;;;;;;5028599;28;20128;-65
2022/04/02 13:56:34;;;;;;;1.67;0.40;;;;;;;;;;5028706;28;20042;-66
2022/04/02 13:59:01;;;;;;;1.25;0.50;;;;;;;;;;5028931;28;20037;-65
2022/04/02 14:01:29;;;;;;;2.67;0.60;;;;;;;;;;5028361;28;20151;-66
2022/04/02 14:04:04;;;;;;;1.67;0.70;;;;;;;;;;5027600;28;20049;-65
2022/04/02 14:06:31;;;;;;;2.10;0.50;;;;;;;;;;5028447;28;20049;-66
2022/04/02 14:08:58;;;;;;;3.80;1.00;;;;;;;;;;5028258;28;20048;-66
2022/04/02 14:11:30;;;;;;;2.17;0.60;;;;;;;;;;5027953;28;20041;-65
2022/04/02 14:14:05;;;;;;;1.48;0.47;;;;;;;;;;5028706;28;20107;-66
2022/04/02 14:16:32;;;;;;;0.85;0.45;;;;;;;;;;5028379;28;20552;-66
2022/04/02 14:19:09;;;;;;;1.40;0.50;;;;;;;;;;5028366;28;20106;-66
2022/04/02 14:21:35;;;;;;;2.35;0.40;;;;;;;;;;5028108;28;20084;-65
2022/04/02 14:24:04;;;;;;;2.70;0.50;;;;;;;;;;5028096;28;20045;-66
2022/04/02 14:26:46;;;;;;;2.58;0.40;;;;;;;;;;5027473;28;20050;-65
2022/04/02 14:29:21;;;;;;;10.52;0.70;;;;;;;;;;5027594;28;20045;-65
2022/04/02 14:32:06;;;;;;;1.98;0.70;;;;;;;;;;5027070;28;20110;-65
2022/04/02 14:34:44;;;;;;;1.70;0.75;;;;;;;;;;5042234;28;20044;-67
2022/04/02 14:37:25;;;;;;;2.10;0.43;;;;;;;;;;5066846;28;20569;-66
2022/04/02 14:40:10;;;;;;;4.18;0.65;;;;;;;;;;5067675;28;20055;-66
2022/04/02 14:42:42;;;;;;;1.48;0.40;;;;;;;;;;5067420;28;20059;-66
2022/04/02 14:45:26;;;;;;;0.73;0.40;;;;;;;;;;5049819;28;20529;-66
2022/04/02 14:47:58;;;;;;;2.10;0.50;;;;;;;;;;5067580;28;20072;-66
2022/04/02 14:50:37;;;;;;;1.33;0.50;;;;;;;;;;5067930;28;20188;-67
2022/04/02 14:53:18;;;;;;;1.27;0.50;;;;;;;;;;5067806;28;20080;-66
2022/04/02 14:55:44;;;;;;;1.63;0.40;;;;;;;;;;5068062;28;20414;-66
2022/04/02 14:58:45;;;;;;;0.73;0.40;;;;;;;;;;5067835;28;20461;-67
2022/04/02 15:01:11;;;;;;;1.15;0.47;;;;;;;;;;4986239;28;20046;-64
2022/04/02 15:03:55;;;;;;;1.95;0.90;;;;;;;;;;5049797;28;20059;-64
2022/04/02 15:06:33;;;;;;;1.20;0.50;;;;;;;;;;5067668;28;20076;-65